sensor_id;sensor_type;location;lat;lon;timestamp;temperature;humidity
8939;DHT22;4504;48.810;9.172;2024-02-04T00:00:14;8.80;99.90
8939;DHT22;4504;48.810;9.172;2024-02-04T00:02:43;8.80;99.90
8939;DHT22;4504;48.810;9.172;2024-02-04T00:05:10;8.90;99.90
8939;DHT22;4504;48.810;9.172;2024-02-04T00:07:39;8.80;99.90
8939;DHT22;4504;48.810;9.172;2024-02-04T00:10:07;8.80;99.90
8939;DHT22;4504;48.810;9.172;2024-02-04T00:12:34;8.80;99.90
8939;DHT22;4504;48.810;9.172;2024-02-04T00:15:01;8.80;99.90
8939;DHT22;4504;48.810;9.172;2024-02-04T00:17:30;8.80;99.90
8939;DHT22;4504;48.810;9.172;2024-02-04T00:19:58;8.80;99.90
8939;DHT22;4504;48.810;9.172;2024-02-04T00:22:25;8.80;99.90
8939;DHT22;4504;48.810;9.172;2024-02-04T00:24:54;8.70;99.90
8939;DHT22;4504;48.810;9.172;2024-02-04T00:27:27;8.70;99.90
8939;DHT22;4504;48.810;9.172;2024-02-04T00:29:54;8.70;99.90
8939;DHT22;4504;48.810;9.172;2024-02-04T00:32:21;8.60;99.90
8939;DHT22;4504;48.810;9.172;2024-02-04T00:34:48;8.60;99.90
8939;DHT22;4504;48.810;9.172;2024-02-04T00:37:15;8.50;99.90
8939;DHT22;4504;48.810;9.172;2024-02-04T00:39:42;8.50;99.90
8939;DHT22;4504;48.810;9.172;2024-02-04T00:42:10;8.50;99.90
8939;DHT22;4504;48.810;9.172;2024-02-04T00:44:38;8.50;99.90
8939;DHT22;4504;48.810;9.172;2024-02-04T00:47:05;8.40;99.90
8939;DHT22;4504;48.810;9.172;2024-02-04T00:49:32;8.40;99.90
8939;DHT22;4504;48.810;9.172;2024-02-04T00:51:59;8.50;99.90
8939;DHT22;4504;48.810;9.172;2024-02-04T00:54:26;8.40;99.90
8939;DHT22;4504;48.810;9.172;2024-02-04T00:56:53;8.50;99.90
8939;DHT22;4504;48.810;9.172;2024-02-04T00:59:22;8.50;99.90
8939;DHT22;4504;48.810;9.172;2024-02-04T01:01:49;8.50;99.90
8939;DHT22;4504;48.810;9.172;2024-02-04T01:04:16;8.50;99.90
8939;DHT22;4504;48.810;9.172;2024-02-04T01:06:43;8.50;99.90
8939;DHT22;4504;48.810;9.172;2024-02-04T01:09:10;8.50;99.90
8939;DHT22;4504;48.810;9.172;2024-02-04T01:11:38;8.50;99.90
8939;DHT22;4504;48.810;9.172;2024-02-04T01:14:05;8.50;99.90
8939;DHT22;4504;48.810;9.172;2024-02-04T01:16:33;8.60;99.90
8939;DHT22;4504;48.810;9.172;2024-02-04T01:19:00;8.60;99.90
8939;DHT22;4504;48.810;9.172;2024-02-04T01:21:27;8.60;99.90
8939;DHT22;4504;48.810;9.172;2024-02-04T01:23:55;8.50;99.90
8939;DHT22;4504;48.810;9.172;2024-02-04T01:26:22;8.50;99.90
8939;DHT22;4504;48.810;9.172;2024-02-04T01:28:50;8.50;99.90
8939;DHT22;4504;48.810;9.172;2024-02-04T01:31:17;8.40;99.90
8939;DHT22;4504;48.810;9.172;2024-02-04T01:33:45;8.40;99.90
8939;DHT22;4504;48.810;9.172;2024-02-04T01:36:12;8.40;99.90
8939;DHT22;4504;48.810;9.172;2024-02-04T01:38:39;8.30;99.90
8939;DHT22;4504;48.810;9.172;2024-02-04T01:41:06;8.30;99.90
8939;DHT22;4504;48.810;9.172;2024-02-04T01:43:33;8.30;99.90
8939;DHT22;4504;48.810;9.172;2024-02-04T01:46:01;8.30;99.90
8939;DHT22;4504;48.810;9.172;2024-02-04T01:48:28;8.30;99.90
8939;DHT22;4504;48.810;9.172;2024-02-04T01:50:58;8.30;99.90
8939;DHT22;4504;48.810;9.172;2024-02-04T01:53:26;8.30;99.90
8939;DHT22;4504;48.810;9.172;2024-02-04T01:55:55;8.30;99.90
8939;DHT22;4504;48.810;9.172;2024-02-04T01:58:23;8.30;99.90
8939;DHT22;4504;48.810;9.172;2024-02-04T02:00:51;8.30;99.90
8939;DHT22;4504;48.810;9.172;2024-02-04T02:03:19;8.20;99.90
8939;DHT22;4504;48.810;9.172;2024-02-04T02:05:49;8.20;99.90
8939;DHT22;4504;48.810;9.172;2024-02-04T02:08:17;8.20;99.90
8939;DHT22;4504;48.810;9.172;2024-02-04T02:10:46;8.30;99.90
8939;DHT22;4504;48.810;9.172;2024-02-04T02:13:17;8.30;99.90
8939;DHT22;4504;48.810;9.172;2024-02-04T02:15:52;8.30;99.90
8939;DHT22;4504;48.810;9.172;2024-02-04T02:18:25;8.30;99.90
8939;DHT22;4504;48.810;9.172;2024-02-04T02:21:12;8.30;99.90
8939;DHT22;4504;48.810;9.172;2024-02-04T02:23:48;8.30;99.90
8939;DHT22;4504;48.810;9.172;2024-02-04T02:26:20;8.20;99.90
8939;DHT22;4504;48.810;9.172;2024-02-04T02:28:48;8.20;99.90
8939;DHT22;4504;48.810;9.172;2024-02-04T02:31:15;8.30;99.90
8939;DHT22;4504;48.810;9.172;2024-02-04T02:33:42;8.30;99.90
8939;DHT22;4504;48.810;9.172;2024-02-04T02:36:13;8.30;99.90
8939;DHT22;4504;48.810;9.172;2024-02-04T02:38:49;8.30;99.90
8939;DHT22;4504;48.810;9.172;2024-02-04T02:41:21;8.40;99.90
8939;DHT22;4504;48.810;9.172;2024-02-04T02:43:49;8.40;99.90
8939;DHT22;4504;48.810;9.172;2024-02-04T02:46:19;8.40;99.90
8939;DHT22;4504;48.810;9.172;2024-02-04T02:48:46;8.50;99.90
8939;DHT22;4504;48.810;9.172;2024-02-04T02:51:13;8.60;99.90
8939;DHT22;4504;48.810;9.172;2024-02-04T02:53:40;8.50;99.90
8939;DHT22;4504;48.810;9.172;2024-02-04T02:56:07;8.60;99.90
8939;DHT22;4504;48.810;9.172;2024-02-04T02:58:36;8.60;99.90
8939;DHT22;4504;48.810;9.172;2024-02-04T03:01:03;8.60;99.90
8939;DHT22;4504;48.810;9.172;2024-02-04T03:03:30;8.60;99.90
8939;DHT22;4504;48.810;9.172;2024-02-04T03:05:57;8.50;99.90
8939;DHT22;4504;48.810;9.172;2024-02-04T03:08:24;8.50;99.90
8939;DHT22;4504;48.810;9.172;2024-02-04T03:10:51;8.50;99.90
8939;DHT22;4504;48.810;9.172;2024-02-04T03:13:18;8.50;99.90
8939;DHT22;4504;48.810;9.172;2024-02-04T03:15:47;8.40;99.90
8939;DHT22;4504;48.810;9.172;2024-02-04T03:18:14;8.40;99.90
8939;DHT22;4504;48.810;9.172;2024-02-04T03:20:41;8.50;99.90
8939;DHT22;4504;48.810;9.172;2024-02-04T03:23:08;8.50;99.90
8939;DHT22;4504;48.810;9.172;2024-02-04T03:25:35;8.50;99.90
8939;DHT22;4504;48.810;9.172;2024-02-04T03:28:02;8.50;99.90
8939;DHT22;4504;48.810;9.172;2024-02-04T03:30:30;8.50;99.90
8939;DHT22;4504;48.810;9.172;2024-02-04T03:32:58;8.50;99.90
8939;DHT22;4504;48.810;9.172;2024-02-04T03:35:25;8.50;99.90
8939;DHT22;4504;48.810;9.172;2024-02-04T03:37:53;8.50;99.90
8939;DHT22;4504;48.810;9.172;2024-02-04T03:40:20;8.50;99.90
8939;DHT22;4504;48.810;9.172;2024-02-04T03:42:50;8.50;99.90
8939;DHT22;4504;48.810;9.172;2024-02-04T03:45:17;8.50;99.90
8939;DHT22;4504;48.810;9.172;2024-02-04T03:47:45;8.50;99.90
8939;DHT22;4504;48.810;9.172;2024-02-04T03:50:13;8.50;99.90
8939;DHT22;4504;48.810;9.172;2024-02-04T03:52:40;8.50;99.90
8939;DHT22;4504;48.810;9.172;2024-02-04T03:55:09;8.50;99.90
8939;DHT22;4504;48.810;9.172;2024-02-04T03:57:36;8.50;99.90
8939;DHT22;4504;48.810;9.172;2024-02-04T04:00:04;8.40;99.90
8939;DHT22;4504;48.810;9.172;2024-02-04T04:02:37;8.50;99.90
8939;DHT22;4504;48.810;9.172;2024-02-04T04:05:05;8.50;99.90
8939;DHT22;4504;48.810;9.172;2024-02-04T04:07:34;8.50;99.90
8939;DHT22;4504;48.810;9.172;2024-02-04T04:10:01;8.50;99.90
8939;DHT22;4504;48.810;9.172;2024-02-04T04:12:28;8.60;99.90
8939;DHT22;4504;48.810;9.172;2024-02-04T04:14:55;8.40;99.90
8939;DHT22;4504;48.810;9.172;2024-02-04T04:17:22;8.40;99.90
8939;DHT22;4504;48.810;9.172;2024-02-04T04:19:49;8.40;99.90
8939;DHT22;4504;48.810;9.172;2024-02-04T04:22:16;8.50;99.90
8939;DHT22;4504;48.810;9.172;2024-02-04T04:24:44;8.50;99.90
8939;DHT22;4504;48.810;9.172;2024-02-04T04:27:11;8.50;99.90
8939;DHT22;4504;48.810;9.172;2024-02-04T04:29:38;8.50;99.90
8939;DHT22;4504;48.810;9.172;2024-02-04T04:32:06;8.40;99.90
8939;DHT22;4504;48.810;9.172;2024-02-04T04:34:33;8.40;99.90
8939;DHT22;4504;48.810;9.172;2024-02-04T04:37:00;8.40;99.90
8939;DHT22;4504;48.810;9.172;2024-02-04T04:39:27;8.40;99.90
8939;DHT22;4504;48.810;9.172;2024-02-04T04:41:55;8.40;99.90
8939;DHT22;4504;48.810;9.172;2024-02-04T04:44:22;8.30;99.90
8939;DHT22;4504;48.810;9.172;2024-02-04T04:46:49;8.30;99.90
8939;DHT22;4504;48.810;9.172;2024-02-04T04:49:16;8.30;99.90
8939;DHT22;4504;48.810;9.172;2024-02-04T04:51:44;8.40;99.90
8939;DHT22;4504;48.810;9.172;2024-02-04T04:54:12;8.40;99.90
8939;DHT22;4504;48.810;9.172;2024-02-04T04:56:39;8.40;99.90
8939;DHT22;4504;48.810;9.172;2024-02-04T04:59:07;8.40;99.90
8939;DHT22;4504;48.810;9.172;2024-02-04T05:01:35;8.40;99.90
8939;DHT22;4504;48.810;9.172;2024-02-04T05:04:02;8.50;99.90
8939;DHT22;4504;48.810;9.172;2024-02-04T05:06:29;8.60;99.90
8939;DHT22;4504;48.810;9.172;2024-02-04T05:08:56;8.60;99.90
8939;DHT22;4504;48.810;9.172;2024-02-04T05:11:23;8.70;99.90
8939;DHT22;4504;48.810;9.172;2024-02-04T05:13:50;8.70;99.90
8939;DHT22;4504;48.810;9.172;2024-02-04T05:16:19;8.60;99.90
8939;DHT22;4504;48.810;9.172;2024-02-04T05:18:46;8.60;99.90
8939;DHT22;4504;48.810;9.172;2024-02-04T05:21:13;8.70;99.90
8939;DHT22;4504;48.810;9.172;2024-02-04T05:23:40;8.70;99.90
8939;DHT22;4504;48.810;9.172;2024-02-04T05:26:07;8.70;99.90
8939;DHT22;4504;48.810;9.172;2024-02-04T05:28:34;8.70;99.90
8939;DHT22;4504;48.810;9.172;2024-02-04T05:31:01;8.70;99.90
8939;DHT22;4504;48.810;9.172;2024-02-04T05:33:30;8.70;99.90
8939;DHT22;4504;48.810;9.172;2024-02-04T05:35:57;8.70;99.90
8939;DHT22;4504;48.810;9.172;2024-02-04T05:38:24;8.70;99.90
8939;DHT22;4504;48.810;9.172;2024-02-04T05:40:51;8.80;99.90
8939;DHT22;4504;48.810;9.172;2024-02-04T05:43:18;8.80;99.90
8939;DHT22;4504;48.810;9.172;2024-02-04T05:45:45;8.70;99.90
8939;DHT22;4504;48.810;9.172;2024-02-04T05:48:12;8.80;99.90
8939;DHT22;4504;48.810;9.172;2024-02-04T05:50:41;8.80;99.90
8939;DHT22;4504;48.810;9.172;2024-02-04T05:53:08;8.80;99.90
8939;DHT22;4504;48.810;9.172;2024-02-04T05:55:35;8.70;99.90
8939;DHT22;4504;48.810;9.172;2024-02-04T05:58:02;8.70;99.90
8939;DHT22;4504;48.810;9.172;2024-02-04T06:00:30;8.70;99.90
8939;DHT22;4504;48.810;9.172;2024-02-04T06:02:57;8.70;99.90
8939;DHT22;4504;48.810;9.172;2024-02-04T06:05:24;8.80;99.90
8939;DHT22;4504;48.810;9.172;2024-02-04T06:07:52;8.70;99.90
8939;DHT22;4504;48.810;9.172;2024-02-04T06:10:19;8.80;99.90
8939;DHT22;4504;48.810;9.172;2024-02-04T06:12:46;8.70;99.90
8939;DHT22;4504;48.810;9.172;2024-02-04T06:15:14;8.70;99.90
8939;DHT22;4504;48.810;9.172;2024-02-04T06:17:41;8.70;99.90
8939;DHT22;4504;48.810;9.172;2024-02-04T06:20:09;8.70;99.90
8939;DHT22;4504;48.810;9.172;2024-02-04T06:22:36;8.80;99.90
8939;DHT22;4504;48.810;9.172;2024-02-04T06:25:05;8.80;99.90
8939;DHT22;4504;48.810;9.172;2024-02-04T06:27:32;8.70;99.90
8939;DHT22;4504;48.810;9.172;2024-02-04T06:29:59;8.70;99.90
8939;DHT22;4504;48.810;9.172;2024-02-04T06:32:26;8.70;99.90
8939;DHT22;4504;48.810;9.172;2024-02-04T06:34:53;8.80;99.90
8939;DHT22;4504;48.810;9.172;2024-02-04T06:37:21;8.80;99.90
8939;DHT22;4504;48.810;9.172;2024-02-04T06:39:48;8.70;99.90
8939;DHT22;4504;48.810;9.172;2024-02-04T06:42:16;8.70;99.90
8939;DHT22;4504;48.810;9.172;2024-02-04T06:44:44;8.60;99.90
8939;DHT22;4504;48.810;9.172;2024-02-04T06:47:11;8.60;99.90
8939;DHT22;4504;48.810;9.172;2024-02-04T06:49:39;8.60;99.90
8939;DHT22;4504;48.810;9.172;2024-02-04T06:52:06;8.60;99.90
8939;DHT22;4504;48.810;9.172;2024-02-04T06:54:33;8.60;99.90
8939;DHT22;4504;48.810;9.172;2024-02-04T06:57:00;8.60;99.90
8939;DHT22;4504;48.810;9.172;2024-02-04T06:59:28;8.60;99.90
8939;DHT22;4504;48.810;9.172;2024-02-04T07:01:55;8.60;99.90
8939;DHT22;4504;48.810;9.172;2024-02-04T07:04:22;8.60;99.90
8939;DHT22;4504;48.810;9.172;2024-02-04T07:06:50;8.70;99.90
8939;DHT22;4504;48.810;9.172;2024-02-04T07:09:18;8.60;99.90
8939;DHT22;4504;48.810;9.172;2024-02-04T07:11:45;8.60;99.90
8939;DHT22;4504;48.810;9.172;2024-02-04T07:14:12;8.50;99.90
8939;DHT22;4504;48.810;9.172;2024-02-04T07:16:41;8.60;99.90
8939;DHT22;4504;48.810;9.172;2024-02-04T07:19:08;8.50;99.90
8939;DHT22;4504;48.810;9.172;2024-02-04T07:21:35;8.60;99.90
8939;DHT22;4504;48.810;9.172;2024-02-04T07:24:02;8.50;99.90
8939;DHT22;4504;48.810;9.172;2024-02-04T07:26:29;8.50;99.90
8939;DHT22;4504;48.810;9.172;2024-02-04T07:28:56;8.60;99.90
8939;DHT22;4504;48.810;9.172;2024-02-04T07:31:23;8.60;99.90
8939;DHT22;4504;48.810;9.172;2024-02-04T07:33:52;8.70;99.90
8939;DHT22;4504;48.810;9.172;2024-02-04T07:36:19;8.70;99.90
8939;DHT22;4504;48.810;9.172;2024-02-04T07:38:46;8.70;99.90
8939;DHT22;4504;48.810;9.172;2024-02-04T07:41:13;8.60;99.90
8939;DHT22;4504;48.810;9.172;2024-02-04T07:43:42;8.60;99.90
8939;DHT22;4504;48.810;9.172;2024-02-04T07:46:09;8.60;99.90
8939;DHT22;4504;48.810;9.172;2024-02-04T07:48:38;8.60;99.90
8939;DHT22;4504;48.810;9.172;2024-02-04T07:51:06;8.60;99.90
8939;DHT22;4504;48.810;9.172;2024-02-04T07:53:33;8.60;99.90
8939;DHT22;4504;48.810;9.172;2024-02-04T07:56:02;8.60;99.90
8939;DHT22;4504;48.810;9.172;2024-02-04T07:58:32;8.70;99.90
8939;DHT22;4504;48.810;9.172;2024-02-04T08:00:59;8.80;99.90
8939;DHT22;4504;48.810;9.172;2024-02-04T08:03:26;8.90;99.90
8939;DHT22;4504;48.810;9.172;2024-02-04T08:05:53;9.00;99.90
8939;DHT22;4504;48.810;9.172;2024-02-04T08:08:21;9.00;99.90
8939;DHT22;4504;48.810;9.172;2024-02-04T08:10:49;9.00;99.90
8939;DHT22;4504;48.810;9.172;2024-02-04T08:13:16;9.00;99.90
8939;DHT22;4504;48.810;9.172;2024-02-04T08:15:43;9.10;99.90
8939;DHT22;4504;48.810;9.172;2024-02-04T08:18:10;9.10;99.90
8939;DHT22;4504;48.810;9.172;2024-02-04T08:20:37;9.10;99.90
8939;DHT22;4504;48.810;9.172;2024-02-04T08:23:04;8.90;99.90
8939;DHT22;4504;48.810;9.172;2024-02-04T08:25:32;9.00;99.90
8939;DHT22;4504;48.810;9.172;2024-02-04T08:27:59;9.20;99.90
8939;DHT22;4504;48.810;9.172;2024-02-04T08:30:26;9.20;99.90
8939;DHT22;4504;48.810;9.172;2024-02-04T08:32:53;9.20;99.90
8939;DHT22;4504;48.810;9.172;2024-02-04T08:35:20;9.20;99.90
8939;DHT22;4504;48.810;9.172;2024-02-04T08:37:47;9.20;99.90
8939;DHT22;4504;48.810;9.172;2024-02-04T08:40:14;9.20;99.90
8939;DHT22;4504;48.810;9.172;2024-02-04T08:42:43;9.40;99.90
8939;DHT22;4504;48.810;9.172;2024-02-04T08:45:10;9.40;99.90
8939;DHT22;4504;48.810;9.172;2024-02-04T08:47:37;9.60;99.90
8939;DHT22;4504;48.810;9.172;2024-02-04T08:50:05;9.50;99.90
8939;DHT22;4504;48.810;9.172;2024-02-04T08:52:33;9.50;99.90
8939;DHT22;4504;48.810;9.172;2024-02-04T08:55:00;9.60;99.90
8939;DHT22;4504;48.810;9.172;2024-02-04T08:57:29;9.50;99.90
8939;DHT22;4504;48.810;9.172;2024-02-04T08:59:58;9.50;99.90
8939;DHT22;4504;48.810;9.172;2024-02-04T09:02:25;9.50;99.90
8939;DHT22;4504;48.810;9.172;2024-02-04T09:04:52;9.40;99.90
8939;DHT22;4504;48.810;9.172;2024-02-04T09:07:20;9.40;99.90
8939;DHT22;4504;48.810;9.172;2024-02-04T09:09:47;9.60;99.90
8939;DHT22;4504;48.810;9.172;2024-02-04T09:12:14;9.60;99.90
8939;DHT22;4504;48.810;9.172;2024-02-04T09:14:41;9.60;99.90
8939;DHT22;4504;48.810;9.172;2024-02-04T09:17:09;9.60;99.90
8939;DHT22;4504;48.810;9.172;2024-02-04T09:19:39;9.60;99.90
8939;DHT22;4504;48.810;9.172;2024-02-04T09:22:06;9.50;99.90
8939;DHT22;4504;48.810;9.172;2024-02-04T09:24:33;9.50;99.90
8939;DHT22;4504;48.810;9.172;2024-02-04T09:27:00;9.60;99.90
8939;DHT22;4504;48.810;9.172;2024-02-04T09:29:27;9.60;99.90
8939;DHT22;4504;48.810;9.172;2024-02-04T09:31:54;9.60;99.90
8939;DHT22;4504;48.810;9.172;2024-02-04T09:34:22;9.70;99.90
8939;DHT22;4504;48.810;9.172;2024-02-04T09:36:50;9.80;99.90
8939;DHT22;4504;48.810;9.172;2024-02-04T09:39:19;9.80;99.90
8939;DHT22;4504;48.810;9.172;2024-02-04T09:41:46;9.80;99.90
8939;DHT22;4504;48.810;9.172;2024-02-04T09:44:13;9.90;99.90
8939;DHT22;4504;48.810;9.172;2024-02-04T09:46:41;10.00;99.90
8939;DHT22;4504;48.810;9.172;2024-02-04T09:49:08;10.10;99.90
8939;DHT22;4504;48.810;9.172;2024-02-04T09:51:37;10.10;99.90
8939;DHT22;4504;48.810;9.172;2024-02-04T09:54:05;10.00;99.90
8939;DHT22;4504;48.810;9.172;2024-02-04T09:56:33;10.00;99.90
8939;DHT22;4504;48.810;9.172;2024-02-04T09:59:01;10.00;99.90
8939;DHT22;4504;48.810;9.172;2024-02-04T10:01:28;10.10;99.90
8939;DHT22;4504;48.810;9.172;2024-02-04T10:03:56;10.10;99.90
8939;DHT22;4504;48.810;9.172;2024-02-04T10:06:24;10.10;99.90
8939;DHT22;4504;48.810;9.172;2024-02-04T10:08:52;10.20;99.90
8939;DHT22;4504;48.810;9.172;2024-02-04T10:11:20;10.20;99.90
8939;DHT22;4504;48.810;9.172;2024-02-04T10:13:48;10.20;99.90
8939;DHT22;4504;48.810;9.172;2024-02-04T10:16:16;10.30;99.90
8939;DHT22;4504;48.810;9.172;2024-02-04T10:18:44;10.40;99.90
8939;DHT22;4504;48.810;9.172;2024-02-04T10:21:16;10.60;99.90
8939;DHT22;4504;48.810;9.172;2024-02-04T10:23:43;10.60;99.90
8939;DHT22;4504;48.810;9.172;2024-02-04T10:26:12;10.60;99.90
8939;DHT22;4504;48.810;9.172;2024-02-04T10:28:39;10.50;99.90
8939;DHT22;4504;48.810;9.172;2024-02-04T10:31:08;10.60;99.90
8939;DHT22;4504;48.810;9.172;2024-02-04T10:33:36;10.60;99.90
8939;DHT22;4504;48.810;9.172;2024-02-04T10:36:03;10.70;99.90
8939;DHT22;4504;48.810;9.172;2024-02-04T10:38:30;10.90;99.90
8939;DHT22;4504;48.810;9.172;2024-02-04T10:40:59;10.80;99.90
8939;DHT22;4504;48.810;9.172;2024-02-04T10:43:31;10.80;99.90
8939;DHT22;4504;48.810;9.172;2024-02-04T10:46:01;10.80;99.90
8939;DHT22;4504;48.810;9.172;2024-02-04T10:48:36;10.90;99.90
8939;DHT22;4504;48.810;9.172;2024-02-04T10:51:12;10.90;99.90
8939;DHT22;4504;48.810;9.172;2024-02-04T10:53:41;11.00;99.90
8939;DHT22;4504;48.810;9.172;2024-02-04T10:56:13;10.90;99.90
8939;DHT22;4504;48.810;9.172;2024-02-04T10:58:43;10.90;99.90
8939;DHT22;4504;48.810;9.172;2024-02-04T11:01:13;11.00;99.90
8939;DHT22;4504;48.810;9.172;2024-02-04T11:03:41;11.00;99.90
8939;DHT22;4504;48.810;9.172;2024-02-04T11:06:10;10.90;99.90
8939;DHT22;4504;48.810;9.172;2024-02-04T11:08:38;11.00;99.90
8939;DHT22;4504;48.810;9.172;2024-02-04T11:11:05;11.10;99.90
8939;DHT22;4504;48.810;9.172;2024-02-04T11:13:32;11.40;99.90
8939;DHT22;4504;48.810;9.172;2024-02-04T11:16:06;12.00;99.90
8939;DHT22;4504;48.810;9.172;2024-02-04T11:21:41;12.50;99.90
8939;DHT22;4504;48.810;9.172;2024-02-04T11:24:28;12.50;99.90
8939;DHT22;4504;48.810;9.172;2024-02-04T11:26:58;12.50;99.90
8939;DHT22;4504;48.810;9.172;2024-02-04T11:29:26;12.40;99.90
8939;DHT22;4504;48.810;9.172;2024-02-04T11:31:55;12.30;99.90
8939;DHT22;4504;48.810;9.172;2024-02-04T11:34:23;12.10;99.90
8939;DHT22;4504;48.810;9.172;2024-02-04T11:36:50;11.80;99.90
8939;DHT22;4504;48.810;9.172;2024-02-04T11:39:18;11.70;99.90
8939;DHT22;4504;48.810;9.172;2024-02-04T11:41:48;11.40;99.90
8939;DHT22;4504;48.810;9.172;2024-02-04T11:44:22;11.40;99.90
8939;DHT22;4504;48.810;9.172;2024-02-04T11:46:50;11.50;99.90
8939;DHT22;4504;48.810;9.172;2024-02-04T11:49:23;11.60;99.90
8939;DHT22;4504;48.810;9.172;2024-02-04T11:51:51;11.60;99.90
8939;DHT22;4504;48.810;9.172;2024-02-04T11:54:21;11.70;99.90
8939;DHT22;4504;48.810;9.172;2024-02-04T11:56:49;11.80;99.90
8939;DHT22;4504;48.810;9.172;2024-02-04T11:59:19;11.70;99.90
8939;DHT22;4504;48.810;9.172;2024-02-04T12:01:48;11.40;99.90
8939;DHT22;4504;48.810;9.172;2024-02-04T12:04:16;11.40;99.90
8939;DHT22;4504;48.810;9.172;2024-02-04T12:06:44;11.50;99.90
8939;DHT22;4504;48.810;9.172;2024-02-04T12:09:11;11.60;99.90
8939;DHT22;4504;48.810;9.172;2024-02-04T12:11:39;11.60;99.90
8939;DHT22;4504;48.810;9.172;2024-02-04T12:14:07;11.50;99.90
8939;DHT22;4504;48.810;9.172;2024-02-04T12:16:34;11.60;99.90
8939;DHT22;4504;48.810;9.172;2024-02-04T12:19:02;11.70;99.90
8939;DHT22;4504;48.810;9.172;2024-02-04T12:21:30;11.50;99.90
8939;DHT22;4504;48.810;9.172;2024-02-04T12:23:59;11.50;99.90
8939;DHT22;4504;48.810;9.172;2024-02-04T12:26:26;11.40;99.90
8939;DHT22;4504;48.810;9.172;2024-02-04T12:28:54;11.30;99.90
8939;DHT22;4504;48.810;9.172;2024-02-04T12:31:24;11.30;99.90
8939;DHT22;4504;48.810;9.172;2024-02-04T12:33:55;11.40;99.90
8939;DHT22;4504;48.810;9.172;2024-02-04T12:36:24;11.40;99.90
8939;DHT22;4504;48.810;9.172;2024-02-04T12:38:53;11.40;99.90
8939;DHT22;4504;48.810;9.172;2024-02-04T12:41:22;11.40;99.90
8939;DHT22;4504;48.810;9.172;2024-02-04T12:43:50;11.40;99.90
8939;DHT22;4504;48.810;9.172;2024-02-04T12:46:18;11.50;99.90
8939;DHT22;4504;48.810;9.172;2024-02-04T12:48:45;11.80;99.90
8939;DHT22;4504;48.810;9.172;2024-02-04T12:51:12;12.00;99.90
8939;DHT22;4504;48.810;9.172;2024-02-04T12:53:49;12.00;99.90
8939;DHT22;4504;48.810;9.172;2024-02-04T12:56:17;12.20;99.90
8939;DHT22;4504;48.810;9.172;2024-02-04T12:58:45;12.30;99.90
8939;DHT22;4504;48.810;9.172;2024-02-04T13:01:12;12.70;99.90
8939;DHT22;4504;48.810;9.172;2024-02-04T13:03:40;12.80;99.90
8939;DHT22;4504;48.810;9.172;2024-02-04T13:06:07;12.60;99.90
8939;DHT22;4504;48.810;9.172;2024-02-04T13:08:34;12.50;99.90
8939;DHT22;4504;48.810;9.172;2024-02-04T13:11:01;12.70;99.90
8939;DHT22;4504;48.810;9.172;2024-02-04T13:13:28;12.60;99.90
8939;DHT22;4504;48.810;9.172;2024-02-04T13:15:57;12.20;99.90
8939;DHT22;4504;48.810;9.172;2024-02-04T13:18:24;12.00;99.90
8939;DHT22;4504;48.810;9.172;2024-02-04T13:20:51;11.70;99.90
8939;DHT22;4504;48.810;9.172;2024-02-04T13:23:18;11.70;99.90
8939;DHT22;4504;48.810;9.172;2024-02-04T13:25:45;11.80;99.90
8939;DHT22;4504;48.810;9.172;2024-02-04T13:28:12;11.80;99.90
8939;DHT22;4504;48.810;9.172;2024-02-04T13:30:39;11.90;99.90
8939;DHT22;4504;48.810;9.172;2024-02-04T13:33:08;11.90;99.90
8939;DHT22;4504;48.810;9.172;2024-02-04T13:35:35;11.60;99.90
8939;DHT22;4504;48.810;9.172;2024-02-04T13:38:02;11.40;99.90
8939;DHT22;4504;48.810;9.172;2024-02-04T13:40:31;11.30;99.90
8939;DHT22;4504;48.810;9.172;2024-02-04T13:42:58;11.30;99.90
8939;DHT22;4504;48.810;9.172;2024-02-04T13:45:25;11.40;99.90
8939;DHT22;4504;48.810;9.172;2024-02-04T13:47:52;11.60;99.90
8939;DHT22;4504;48.810;9.172;2024-02-04T13:50:21;11.60;99.90
8939;DHT22;4504;48.810;9.172;2024-02-04T13:52:47;11.30;99.90
8939;DHT22;4504;48.810;9.172;2024-02-04T13:55:15;11.40;99.90
8939;DHT22;4504;48.810;9.172;2024-02-04T13:57:42;11.60;99.90
8939;DHT22;4504;48.810;9.172;2024-02-04T14:00:10;11.80;99.90
8939;DHT22;4504;48.810;9.172;2024-02-04T14:02:37;11.90;99.90
8939;DHT22;4504;48.810;9.172;2024-02-04T14:05:04;12.00;99.90
8939;DHT22;4504;48.810;9.172;2024-02-04T14:07:32;11.80;99.90
8939;DHT22;4504;48.810;9.172;2024-02-04T14:09:59;11.70;99.90
8939;DHT22;4504;48.810;9.172;2024-02-04T14:12:27;11.40;99.90
8939;DHT22;4504;48.810;9.172;2024-02-04T14:14:54;11.40;99.90
8939;DHT22;4504;48.810;9.172;2024-02-04T14:17:21;11.40;99.90
8939;DHT22;4504;48.810;9.172;2024-02-04T14:19:49;11.40;99.90
8939;DHT22;4504;48.810;9.172;2024-02-04T14:22:17;11.40;99.90
8939;DHT22;4504;48.810;9.172;2024-02-04T14:24:46;11.60;99.90
8939;DHT22;4504;48.810;9.172;2024-02-04T14:27:13;11.70;99.90
8939;DHT22;4504;48.810;9.172;2024-02-04T14:29:40;11.40;99.90
8939;DHT22;4504;48.810;9.172;2024-02-04T14:32:07;11.40;99.90
8939;DHT22;4504;48.810;9.172;2024-02-04T14:34:34;11.40;99.90
8939;DHT22;4504;48.810;9.172;2024-02-04T14:37:02;11.30;99.90
8939;DHT22;4504;48.810;9.172;2024-02-04T14:39:29;11.20;99.90
8939;DHT22;4504;48.810;9.172;2024-02-04T14:41:58;11.20;99.90
8939;DHT22;4504;48.810;9.172;2024-02-04T14:44:25;11.20;99.90
8939;DHT22;4504;48.810;9.172;2024-02-04T14:46:52;11.10;99.90
8939;DHT22;4504;48.810;9.172;2024-02-04T14:49:19;11.10;99.90
8939;DHT22;4504;48.810;9.172;2024-02-04T14:51:46;11.10;99.90
8939;DHT22;4504;48.810;9.172;2024-02-04T14:54:13;11.20;99.90
8939;DHT22;4504;48.810;9.172;2024-02-04T14:56:41;11.20;99.90
8939;DHT22;4504;48.810;9.172;2024-02-04T14:59:10;11.20;99.90
8939;DHT22;4504;48.810;9.172;2024-02-04T15:01:38;11.20;99.90
8939;DHT22;4504;48.810;9.172;2024-02-04T15:04:05;11.20;99.90
8939;DHT22;4504;48.810;9.172;2024-02-04T15:06:32;11.10;99.90
8939;DHT22;4504;48.810;9.172;2024-02-04T15:08:59;11.10;99.90
8939;DHT22;4504;48.810;9.172;2024-02-04T15:11:26;11.10;99.90
8939;DHT22;4504;48.810;9.172;2024-02-04T15:13:55;11.10;99.90
8939;DHT22;4504;48.810;9.172;2024-02-04T15:16:24;11.10;99.90
8939;DHT22;4504;48.810;9.172;2024-02-04T15:18:52;11.10;99.90
8939;DHT22;4504;48.810;9.172;2024-02-04T15:21:19;10.90;99.90
8939;DHT22;4504;48.810;9.172;2024-02-04T15:23:47;11.00;99.90
8939;DHT22;4504;48.810;9.172;2024-02-04T15:26:15;11.10;99.90
8939;DHT22;4504;48.810;9.172;2024-02-04T15:28:43;11.20;99.90
8939;DHT22;4504;48.810;9.172;2024-02-04T15:31:14;11.20;99.90
8939;DHT22;4504;48.810;9.172;2024-02-04T15:33:43;11.20;99.90
8939;DHT22;4504;48.810;9.172;2024-02-04T15:36:10;11.10;99.90
8939;DHT22;4504;48.810;9.172;2024-02-04T15:38:37;11.00;99.90
8939;DHT22;4504;48.810;9.172;2024-02-04T15:41:04;10.90;99.90
8939;DHT22;4504;48.810;9.172;2024-02-04T15:43:31;11.00;99.90
8939;DHT22;4504;48.810;9.172;2024-02-04T15:46:00;10.80;99.90
8939;DHT22;4504;48.810;9.172;2024-02-04T15:48:31;10.60;99.90
8939;DHT22;4504;48.810;9.172;2024-02-04T15:51:00;10.60;99.90
8939;DHT22;4504;48.810;9.172;2024-02-04T15:53:28;10.60;99.90
8939;DHT22;4504;48.810;9.172;2024-02-04T15:55:56;10.60;99.90
8939;DHT22;4504;48.810;9.172;2024-02-04T15:58:24;10.60;99.90
8939;DHT22;4504;48.810;9.172;2024-02-04T16:00:52;10.60;99.90
8939;DHT22;4504;48.810;9.172;2024-02-04T16:03:20;10.60;99.90
8939;DHT22;4504;48.810;9.172;2024-02-04T16:05:48;10.60;99.90
8939;DHT22;4504;48.810;9.172;2024-02-04T16:08:17;10.50;99.90
8939;DHT22;4504;48.810;9.172;2024-02-04T16:10:44;10.50;99.90
8939;DHT22;4504;48.810;9.172;2024-02-04T16:13:13;10.40;99.90
8939;DHT22;4504;48.810;9.172;2024-02-04T16:15:42;10.50;99.90
8939;DHT22;4504;48.810;9.172;2024-02-04T16:18:12;10.30;99.90